createdAt,value
2022-09-04T00:00:19.225Z,98.30
2022-09-04T00:02:52.029Z,98.30
2022-09-04T00:05:37.276Z,98.30
2022-09-04T00:08:42.444Z,98.30
2022-09-04T00:11:44.874Z,98.30
2022-09-04T00:14:35.203Z,98.30
2022-09-04T00:17:10.676Z,98.30
2022-09-04T00:19:56.371Z,98.30
2022-09-04T00:22:39.548Z,98.30
2022-09-04T00:25:26.032Z,98.30
2022-09-04T00:28:09.327Z,98.30
2022-09-04T00:30:46.243Z,98.30
2022-09-04T00:33:17.324Z,98.30
2022-09-04T00:35:50.613Z,98.30
2022-09-04T00:38:26.430Z,98.30
2022-09-04T00:41:11.070Z,98.30
2022-09-04T00:44:18.984Z,98.30
2022-09-04T00:47:05.902Z,98.30
2022-09-04T00:50:07.259Z,98.30
2022-09-04T00:52:57.449Z,98.30
2022-09-04T00:55:44.678Z,98.30
2022-09-04T00:58:42.887Z,98.30
2022-09-04T01:01:16.755Z,98.30
2022-09-04T01:03:59.263Z,98.30
2022-09-04T01:06:39.117Z,98.30
2022-09-04T01:09:41.269Z,98.30
2022-09-04T01:12:23.057Z,98.30
2022-09-04T01:15:14.311Z,98.30
2022-09-04T01:17:50.506Z,98.30
2022-09-04T01:20:30.587Z,98.30
2022-09-04T01:23:34.295Z,98.20
2022-09-04T01:26:17.097Z,98.30
2022-09-04T01:29:14.650Z,98.30
2022-09-04T01:32:00.005Z,98.30
2022-09-04T01:34:35.298Z,98.30
2022-09-04T01:37:43.533Z,98.30
2022-09-04T01:40:35.658Z,98.30
2022-09-04T01:43:06.174Z,98.30
2022-09-04T01:45:56.686Z,98.30
2022-09-04T01:48:36.571Z,98.30
2022-09-04T01:51:23.086Z,98.30
2022-09-04T01:54:15.758Z,98.30
2022-09-04T01:56:50.086Z,98.30
2022-09-04T02:00:10.941Z,98.30
2022-09-04T02:03:00.295Z,98.30
2022-09-04T02:05:50.248Z,98.30
2022-09-04T02:08:55.201Z,98.30
2022-09-04T02:11:28.137Z,98.20
2022-09-04T02:14:25.996Z,98.30
2022-09-04T02:17:12.857Z,98.30
2022-09-04T02:20:09.324Z,97.50
2022-09-04T02:22:48.108Z,98.20
2022-09-04T02:25:41.206Z,98.30
2022-09-04T02:28:36.891Z,98.30
2022-09-04T02:31:24.127Z,98.30
2022-09-04T02:33:59.607Z,98.30
2022-09-04T02:36:38.333Z,98.30
2022-09-04T02:39:40.719Z,98.30
2022-09-04T02:42:37.107Z,98.30
2022-09-04T02:45:48.149Z,98.30
2022-09-04T02:48:23.563Z,98.30
2022-09-04T02:51:15.142Z,98.30
2022-09-04T02:54:21.293Z,98.30
2022-09-04T02:57:09.159Z,98.30
2022-09-04T02:59:50.314Z,98.30
2022-09-04T03:02:42.714Z,98.30
2022-09-04T03:05:42.094Z,98.30
2022-09-04T03:08:36.198Z,98.30
2022-09-04T03:11:13.656Z,98.30
2022-09-04T03:13:47.406Z,98.30
2022-09-04T03:16:23.942Z,98.30
2022-09-04T03:19:39.087Z,98.30
2022-09-04T03:22:24.102Z,98.30
2022-09-04T03:25:28.356Z,98.30
2022-09-04T03:27:55.066Z,98.30
2022-09-04T03:30:21.881Z,98.30
2022-09-04T03:33:07.469Z,98.30
2022-09-04T03:35:55.022Z,98.30
2022-09-04T03:38:57.152Z,98.30
2022-09-04T03:41:42.418Z,98.30
2022-09-04T03:44:46.974Z,98.30
2022-09-04T03:47:42.609Z,98.30
2022-09-04T03:50:37.975Z,98.30
2022-09-04T03:53:29.845Z,98.30
2022-09-04T03:56:20.048Z,98.30
2022-09-04T03:59:19.667Z,98.30
2022-09-04T04:02:09.069Z,98.30
2022-09-04T04:04:50.901Z,98.30
2022-09-04T04:08:03.611Z,98.30
2022-09-04T04:10:47.397Z,98.30
2022-09-04T04:13:14.034Z,98.30
2022-09-04T04:16:15.534Z,98.30
2022-09-04T04:19:10.745Z,98.30
2022-09-04T04:21:54.773Z,98.30
2022-09-04T04:24:39.212Z,98.30
2022-09-04T04:27:26.199Z,98.30
2022-09-04T04:30:04.695Z,98.30
2022-09-04T04:33:09.562Z,98.30
2022-09-04T04:36:27.818Z,98.30
2022-09-04T04:39:20.980Z,98.30
2022-09-04T04:42:06.172Z,98.30
2022-09-04T04:45:10.682Z,98.30
2022-09-04T04:47:55.884Z,98.30
2022-09-04T04:50:40.402Z,98.30
2022-09-04T04:53:22.958Z,98.30
2022-09-04T04:56:15.475Z,98.30
2022-09-04T04:59:13.848Z,98.30
2022-09-04T05:01:51.741Z,98.30
2022-09-04T05:04:23.936Z,98.30
2022-09-04T05:07:21.886Z,98.30
2022-09-04T05:10:10.794Z,98.30
2022-09-04T05:13:02.009Z,98.30
2022-09-04T05:16:05.489Z,98.30
2022-09-04T05:18:43.766Z,98.30
2022-09-04T05:21:23.169Z,98.30
2022-09-04T05:24:14.731Z,98.30
2022-09-04T05:27:04.262Z,98.30
2022-09-04T05:29:53.640Z,98.30
2022-09-04T05:32:49.578Z,98.30
2022-09-04T05:35:37.234Z,98.30
2022-09-04T05:38:18.035Z,98.30
2022-09-04T05:41:08.736Z,98.30
2022-09-04T05:43:49.309Z,98.30
2022-09-04T05:46:37.849Z,98.30
2022-09-04T05:49:33.674Z,98.30
2022-09-04T05:52:38.143Z,98.30
2022-09-04T05:55:51.035Z,98.30
2022-09-04T05:58:45.996Z,98.30
2022-09-04T06:01:35.908Z,98.30
2022-09-04T06:04:43.270Z,98.30
2022-09-04T06:07:21.029Z,98.30
2022-09-04T06:10:13.913Z,98.30
2022-09-04T06:13:03.259Z,98.30
2022-09-04T06:15:57.161Z,98.30
2022-09-04T06:18:35.732Z,98.10
2022-09-04T06:21:14.957Z,98.20
2022-09-04T06:23:56.599Z,98.20
2022-09-04T06:27:00.870Z,97.90
2022-09-04T06:29:46.304Z,97.60
2022-09-04T06:32:37.947Z,98.10
2022-09-04T06:35:18.701Z,97.80
2022-09-04T06:38:08.737Z,98.00
2022-09-04T06:40:46.650Z,98.30
2022-09-04T06:43:13.342Z,98.30
2022-09-04T06:46:28.706Z,98.30
2022-09-04T06:49:18.964Z,98.30
2022-09-04T06:51:52.481Z,98.30
2022-09-04T06:54:22.156Z,98.30
2022-09-04T06:57:24.199Z,98.30
2022-09-04T07:00:00.829Z,97.90
2022-09-04T07:02:55.538Z,97.90
2022-09-04T07:05:56.474Z,97.10
2022-09-04T07:08:42.377Z,97.60
2022-09-04T07:11:15.338Z,98.30
2022-09-04T07:13:57.699Z,98.30
2022-09-04T07:16:44.424Z,97.60
2022-09-04T07:19:40.723Z,97.50
2022-09-04T07:22:46.667Z,97.60
2022-09-04T07:25:32.776Z,97.20
2022-09-04T07:27:59.418Z,97.30
2022-09-04T07:30:31.050Z,97.90
2022-09-04T07:33:07.320Z,96.50
2022-09-04T07:35:40.864Z,96.60
2022-09-04T07:38:07.502Z,96.50
2022-09-04T07:40:38.319Z,96.40
2022-09-04T07:43:21.321Z,96.80
2022-09-04T07:46:12.075Z,96.90
2022-09-04T07:48:54.013Z,96.40
2022-09-04T07:51:27.021Z,96.60
2022-09-04T07:54:29.515Z,97.50
2022-09-04T07:57:18.991Z,98.20
2022-09-04T07:59:56.030Z,98.20
2022-09-04T08:02:33.855Z,97.50
2022-09-04T08:05:20.436Z,97.60
2022-09-04T08:08:03.723Z,97.50
2022-09-04T08:10:31.435Z,97.00
2022-09-04T08:13:40.342Z,96.70
2022-09-04T08:16:28.532Z,96.60
2022-09-04T08:19:30.159Z,96.10
2022-09-04T08:21:57.393Z,96.80
2022-09-04T08:24:45.185Z,96.20
2022-09-04T08:27:26.874Z,95.90
2022-09-04T08:30:07.328Z,95.90
2022-09-04T08:32:54.851Z,96.50
2022-09-04T08:35:49.746Z,97.00
2022-09-04T08:38:35.609Z,96.90
2022-09-04T08:41:39.941Z,96.40
2022-09-04T08:44:26.884Z,96.40
2022-09-04T08:47:13.182Z,96.50
2022-09-04T08:49:42.998Z,96.50
2022-09-04T08:52:39.910Z,96.30
2022-09-04T08:55:33.190Z,95.30
2022-09-04T08:58:47.864Z,95.50
2022-09-04T09:01:21.124Z,95.10
2022-09-04T09:03:56.703Z,94.80
2022-09-04T09:07:08.294Z,94.00
2022-09-04T09:10:12.421Z,93.50
2022-09-04T09:12:59.798Z,93.60
2022-09-04T09:15:53.418Z,93.70
2022-09-04T09:18:56.610Z,93.90
2022-09-04T09:21:44.962Z,93.70
2022-09-04T09:24:26.562Z,93.40
2022-09-04T09:27:11.512Z,92.80
2022-09-04T09:30:07.326Z,92.00
2022-09-04T09:32:58.820Z,92.60
2022-09-04T09:35:54.398Z,91.90
2022-09-04T09:38:34.768Z,90.90
2022-09-04T09:41:46.373Z,91.70
2022-09-04T09:44:22.223Z,90.80
2022-09-04T09:47:23.019Z,91.30
2022-09-04T09:50:08.078Z,91.60
2022-09-04T09:52:53.430Z,92.10
2022-09-04T09:55:22.910Z,92.80
2022-09-04T09:58:08.177Z,92.50
2022-09-04T10:00:52.578Z,91.80
2022-09-04T10:03:38.050Z,91.20
2022-09-04T10:06:41.460Z,91.30
2022-09-04T10:09:23.009Z,90.70
2022-09-04T10:11:49.673Z,90.50
2022-09-04T10:14:40.249Z,89.40
2022-09-04T10:17:37.769Z,89.50
2022-09-04T10:20:41.937Z,89.10
2022-09-04T10:23:57.402Z,88.60
2022-09-04T10:26:49.037Z,88.20
2022-09-04T10:29:37.753Z,87.90
2022-09-04T10:32:33.040Z,87.20
2022-09-04T10:35:21.276Z,86.20
2022-09-04T10:38:25.255Z,86.20
2022-09-04T10:41:15.908Z,86.00
2022-09-04T10:44:16.675Z,86.00
2022-09-04T10:47:21.086Z,85.50
2022-09-04T10:50:22.060Z,85.80
2022-09-04T10:53:08.188Z,84.80
2022-09-04T10:56:17.821Z,83.50
2022-09-04T10:58:59.718Z,82.80
2022-09-04T11:01:56.875Z,82.00
2022-09-04T11:04:45.685Z,81.10
2022-09-04T11:07:34.325Z,81.00
2022-09-04T11:10:14.636Z,80.10
2022-09-04T11:13:06.021Z,80.40
2022-09-04T11:16:16.280Z,80.10
2022-09-04T11:18:49.053Z,79.60
2022-09-04T11:21:24.706Z,79.30
2022-09-04T11:24:35.217Z,79.70
2022-09-04T11:27:34.605Z,78.00
2022-09-04T11:30:12.052Z,77.50
2022-09-04T11:33:23.090Z,77.50
2022-09-04T11:36:06.795Z,77.40
2022-09-04T11:39:02.582Z,76.50
2022-09-04T11:41:45.400Z,76.30
2022-09-04T11:44:38.930Z,76.80
2022-09-04T11:47:45.989Z,76.30
2022-09-04T11:50:52.715Z,76.20
2022-09-04T11:53:40.836Z,76.60
2022-09-04T11:56:13.707Z,76.20
2022-09-04T11:58:49.468Z,75.70
2022-09-04T12:01:27.232Z,74.70
2022-09-04T12:04:32.334Z,75.00
2022-09-04T12:07:22.844Z,75.10
2022-09-04T12:10:17.155Z,74.70
2022-09-04T12:13:14.984Z,73.80
2022-09-04T12:16:07.781Z,73.90
2022-09-04T12:18:46.497Z,73.30
2022-09-04T12:21:22.022Z,74.10
2022-09-04T12:24:07.590Z,73.80
2022-09-04T12:27:02.361Z,74.10
2022-09-04T12:29:50.318Z,73.60
2022-09-04T12:32:38.353Z,72.70
2022-09-04T12:35:06.565Z,72.20
2022-09-04T12:37:57.680Z,72.50
2022-09-04T12:40:48.522Z,72.50
2022-09-04T12:43:21.321Z,71.70
2022-09-04T12:46:16.625Z,71.60
2022-09-04T12:49:04.435Z,70.40
2022-09-04T12:51:50.524Z,70.60
2022-09-04T12:54:50.655Z,71.20
2022-09-04T12:57:46.590Z,71.30
2022-09-04T13:00:17.458Z,70.80
2022-09-04T13:02:59.253Z,69.90
2022-09-04T13:05:53.321Z,70.20
2022-09-04T13:08:41.168Z,69.80
2022-09-04T13:11:48.905Z,69.20
2022-09-04T13:14:47.457Z,68.10
2022-09-04T13:17:26.569Z,68.20
2022-09-04T13:20:18.701Z,67.80
2022-09-04T13:23:12.917Z,67.40
2022-09-04T13:26:02.050Z,67.60
2022-09-04T13:29:01.118Z,67.20
2022-09-04T13:32:05.549Z,66.50
2022-09-04T13:34:47.953Z,66.40
2022-09-04T13:37:45.118Z,65.30
2022-09-04T13:40:55.560Z,66.30
2022-09-04T13:43:34.235Z,66.50
2022-09-04T13:46:12.638Z,66.10
2022-09-04T13:48:57.701Z,66.60
2022-09-04T13:51:32.909Z,66.00
2022-09-04T13:54:27.512Z,66.10
2022-09-04T13:57:10.824Z,66.40
2022-09-04T13:59:38.268Z,66.00
2022-09-04T14:02:12.379Z,66.30
2022-09-04T14:04:44.109Z,67.30
2022-09-04T14:07:44.666Z,66.30
2022-09-04T14:10:21.301Z,66.40
2022-09-04T14:13:14.838Z,66.60
2022-09-04T14:16:03.902Z,66.70
2022-09-04T14:18:51.706Z,67.20
2022-09-04T14:21:26.856Z,66.50
2022-09-04T14:24:03.250Z,66.40
2022-09-04T14:27:03.061Z,65.70
2022-09-04T14:29:51.014Z,65.40
2022-09-04T14:32:57.604Z,66.10
2022-09-04T14:35:50.737Z,66.40
2022-09-04T14:38:58.667Z,67.20
2022-09-04T14:42:13.700Z,66.40
2022-09-04T14:45:09.471Z,67.50
2022-09-04T14:47:47.213Z,67.60
2022-09-04T14:50:17.221Z,66.70
2022-09-04T14:52:54.634Z,67.30
2022-09-04T14:55:28.629Z,67.00
2022-09-04T14:58:23.239Z,66.30
2022-09-04T15:01:01.442Z,66.40
2022-09-04T15:03:36.015Z,66.50
2022-09-04T15:06:32.436Z,66.40
2022-09-04T15:09:38.356Z,66.50
2022-09-04T15:12:25.534Z,67.10
2022-09-04T15:15:09.884Z,66.10
2022-09-04T15:17:46.139Z,65.90
2022-09-04T15:20:22.432Z,66.50
2022-09-04T15:23:01.164Z,67.00
2022-09-04T15:26:01.697Z,66.90
2022-09-04T15:28:46.270Z,66.30
2022-09-04T15:31:17.632Z,67.10
2022-09-04T15:33:47.565Z,67.60
2022-09-04T15:36:18.263Z,67.20
2022-09-04T15:39:02.785Z,67.20
2022-09-04T15:41:49.766Z,66.90
2022-09-04T15:44:29.732Z,66.30
2022-09-04T15:47:23.143Z,67.10
2022-09-04T15:50:00.245Z,66.60
2022-09-04T15:52:46.275Z,66.30
2022-09-04T15:55:37.115Z,66.60
2022-09-04T15:58:30.259Z,67.50
2022-09-04T16:01:09.220Z,68.10
2022-09-04T16:03:55.285Z,68.90
2022-09-04T16:06:55.663Z,69.00
2022-09-04T16:09:48.440Z,69.00
2022-09-04T16:12:27.936Z,69.00
2022-09-04T16:15:12.317Z,69.20
2022-09-04T16:18:02.404Z,68.30
2022-09-04T16:20:51.247Z,69.20
2022-09-04T16:23:27.209Z,69.20
2022-09-04T16:25:58.142Z,69.40
2022-09-04T16:28:43.639Z,69.90
2022-09-04T16:31:14.262Z,70.10
2022-09-04T16:33:50.078Z,71.50
2022-09-04T16:36:40.198Z,71.80
2022-09-04T16:39:19.207Z,71.70
2022-09-04T16:42:10.293Z,73.20
2022-09-04T16:44:44.363Z,73.00
2022-09-04T16:47:17.787Z,73.20
2022-09-04T16:49:53.697Z,73.80
2022-09-04T16:52:35.287Z,74.70
2022-09-04T16:55:11.327Z,75.00
2022-09-04T16:57:53.371Z,75.50
2022-09-04T17:00:22.290Z,75.60
2022-09-04T17:02:55.795Z,75.60
2022-09-04T17:05:41.287Z,75.70
2022-09-04T17:08:07.980Z,75.60
2022-09-04T17:10:43.002Z,75.90
2022-09-04T17:13:22.323Z,76.50
2022-09-04T17:16:07.994Z,76.70
2022-09-04T17:18:41.074Z,77.20
2022-09-04T17:25:57.363Z,77.40
2022-09-04T17:28:58.118Z,77.60
2022-09-04T17:29:12.105Z,78.00
2022-09-04T17:30:44.256Z,78.30
2022-09-04T17:40:36.810Z,78.30
2022-09-04T17:40:40.357Z,79.00
2022-09-04T17:40:41.015Z,79.00
2022-09-04T17:43:17.676Z,79.20
2022-09-04T17:45:46.437Z,79.10
2022-09-04T17:48:27.113Z,78.80
2022-09-04T17:51:01.047Z,79.40
2022-09-04T17:53:34.256Z,80.40
2022-09-04T17:56:19.484Z,80.90
2022-09-04T17:58:54.482Z,80.90
2022-09-04T18:01:50.978Z,81.00
2022-09-04T18:04:33.845Z,81.50
2022-09-04T18:07:55.807Z,81.50
2022-09-04T18:10:15.179Z,82.20
2022-09-04T18:12:53.743Z,82.30
2022-09-04T18:15:34.687Z,82.20
2022-09-04T18:18:12.064Z,82.00
2022-09-04T18:21:09.023Z,81.80
2022-09-04T18:23:51.275Z,82.10
2022-09-04T18:26:41.033Z,82.50
2022-09-04T18:32:20.309Z,83.10
2022-09-04T18:37:09.140Z,83.40
2022-09-04T18:37:26.721Z,83.30
2022-09-04T18:38:37.995Z,83.70
2022-09-04T18:46:48.389Z,84.00
2022-09-04T18:50:31.892Z,84.20
2022-09-04T18:50:43.619Z,84.00
2022-09-04T18:50:47.270Z,84.40
2022-09-04T18:53:20.898Z,85.00
2022-09-04T18:55:52.037Z,85.20
2022-09-04T18:58:39.675Z,85.40
2022-09-04T19:01:27.422Z,85.40
2022-09-04T19:04:19.219Z,85.70
2022-09-04T19:06:53.296Z,85.80
2022-09-04T19:09:58.204Z,86.20
2022-09-04T19:12:35.915Z,86.30
2022-09-04T19:15:36.812Z,86.10
2022-09-04T19:18:22.193Z,86.20
2022-09-04T19:20:58.042Z,86.50
2022-09-04T19:23:34.030Z,86.80
2022-09-04T19:26:08.222Z,86.90
2022-09-04T19:28:52.693Z,86.70
2022-09-04T19:31:35.084Z,86.40
2022-09-04T19:34:35.254Z,87.00
2022-09-04T19:37:24.651Z,87.00
2022-09-04T19:43:52.629Z,87.10
2022-09-04T19:46:18.861Z,87.20
2022-09-04T19:46:27.874Z,87.60
2022-09-04T19:52:32.196Z,87.60
2022-09-04T19:53:29.641Z,88.10
2022-09-04T19:55:44.675Z,88.30
2022-09-04T19:58:14.148Z,88.60
2022-09-04T20:01:24.054Z,88.90
2022-09-04T20:03:58.001Z,89.50
2022-09-04T20:06:30.244Z,88.80
2022-09-04T20:09:26.204Z,88.80
2022-09-04T20:12:01.001Z,89.10
2022-09-04T20:14:34.520Z,89.80
2022-09-04T20:17:16.067Z,89.70
2022-09-04T20:19:48.533Z,89.80
2022-09-04T20:22:46.178Z,90.20
2022-09-04T20:25:29.582Z,90.20
2022-09-04T20:28:31.344Z,90.10
2022-09-04T20:31:35.342Z,91.20
2022-09-04T20:34:15.601Z,91.50
2022-09-04T20:36:49.362Z,91.20
2022-09-04T20:39:34.263Z,91.10
2022-09-04T20:42:22.836Z,91.80
2022-09-04T20:47:58.204Z,91.30
2022-09-04T20:52:54.895Z,91.60
2022-09-04T20:52:55.661Z,91.40
2022-09-04T20:54:23.586Z,91.80
2022-09-04T21:03:07.377Z,91.70
2022-09-04T21:03:22.521Z,91.80
2022-09-04T21:03:33.952Z,91.80
2022-09-04T21:06:24.382Z,92.00
2022-09-04T21:09:14.834Z,91.10
2022-09-04T21:11:47.125Z,90.80
2022-09-04T21:14:44.890Z,90.60
2022-09-04T21:17:34.499Z,90.40
2022-09-04T21:20:16.852Z,90.70
2022-09-04T21:23:05.510Z,90.90
2022-09-04T21:25:47.947Z,91.20
2022-09-04T21:28:26.544Z,91.40
2022-09-04T21:31:02.857Z,91.20
2022-09-04T21:33:42.670Z,91.40
2022-09-04T21:36:29.071Z,91.10
2022-09-04T21:39:10.781Z,90.90
2022-09-04T21:42:16.444Z,90.80
2022-09-04T21:45:18.689Z,90.50
2022-09-04T21:47:57.597Z,90.10
2022-09-04T21:50:48.254Z,90.70
2022-09-04T21:53:52.787Z,91.20
2022-09-04T21:59:32.694Z,91.30
2022-09-04T22:02:39.683Z,92.30
2022-09-04T22:03:29.694Z,92.10
2022-09-04T22:07:03.546Z,91.60
2022-09-04T22:13:42.849Z,92.10
2022-09-04T22:13:48.015Z,92.60
2022-09-04T22:17:24.413Z,92.80
2022-09-04T22:20:34.841Z,93.30
2022-09-04T22:23:46.682Z,94.20
2022-09-04T22:26:24.033Z,93.90
2022-09-04T22:29:39.945Z,93.90
2022-09-04T22:32:28.238Z,93.90
2022-09-04T22:35:16.603Z,94.30
2022-09-04T22:38:04.496Z,93.70
2022-09-04T22:41:00.933Z,93.40
2022-09-04T22:43:29.505Z,93.00
2022-09-04T22:46:44.747Z,92.80
2022-09-04T22:49:36.078Z,92.40
2022-09-04T22:52:28.264Z,91.90
2022-09-04T22:55:36.183Z,92.00
2022-09-04T22:58:44.054Z,92.10
2022-09-04T23:01:44.791Z,91.90
2022-09-04T23:04:43.763Z,92.30
2022-09-04T23:12:51.409Z,93.30
2022-09-04T23:13:44.174Z,93.90
2022-09-04T23:14:07.606Z,94.40
2022-09-04T23:17:11.573Z,94.80
2022-09-04T23:24:32.938Z,94.60
2022-09-04T23:26:41.491Z,94.40
2022-09-04T23:26:48.242Z,94.30
2022-09-04T23:29:45.300Z,94.40
2022-09-04T23:32:45.437Z,94.00
2022-09-04T23:35:27.342Z,94.50
2022-09-04T23:38:16.634Z,94.80
2022-09-04T23:40:53.981Z,94.70
2022-09-04T23:43:46.201Z,94.70
2022-09-04T23:46:24.480Z,94.80
2022-09-04T23:49:31.238Z,94.70
2022-09-04T23:52:04.845Z,94.20
2022-09-04T23:55:07.946Z,93.90
2022-09-04T23:57:58.239Z,94.00
